Aérodrome :
LOGIN :

S'inscrire | Disclaimer

   EN    FR    IT 

 










Légende :    VFR   VFR Marginal   IFR   IFR Intensif   IFR Très Intensif
Visi : 
Plafond : 
>= 8 km
>= 3000ft
5 à 8 km
1000 à 3000 ft
1500m à 5 km
500 à 1000 ft
800 à 1500m
200 à 500 ft
< 800m
< 200 ft
Symboles :   Orages  Brouillard  Fortes neiges  Fortes précipitations  Vent > 20 kt
SIGMETs :   Divers  Orages  Givrage  Turbulence  Onde Orograph.  Cendres Volcan.






- Altitude de l'aérodrome : 472 ft
- Code IATA : GME


UMGG - Gomel

DERNIER METAR :
  • 032100Z 27004MPS CAVOK 06/M01 Q1011 R28/D NOSIG

METARs EXPIRÉS :
  • 032000Z 25004MPS CAVOK 07/M00 Q1011 R28/D NOSIG
  • 031900Z 28005MPS CAVOK 09/M04 Q1010 R28/D NOSIG
  • 031800Z 31009G12MPS CAVOK 10/M04 Q1009 R28/D NOSIG

TAF TAF UMGG
Valide du 03 à 18h jusqu'au 04 à 18h UTC


031702Z 0318/0418 26006MPS 9999 BKN015
TEMPO 0318/0321 27007G12MPS
TEMPO 0321/0406 2000 BR SCT005
TEMPO 0406/0415 27009G14MPS



MET'MAP, la Météo Aéronautique d'un coup d'oeil ! - Copyright ORBIFLY Décembre 2007 - Disclaimer

ORBIFLY MET'MAP TEAM :

Programmation & Développement : Alexandra Zaïnal
Sur une idée originale de : Baudouin d'Aumeries
Assistance à la programmation : Marc-Olivier Méhu
Soutien technique & logistique : Manuel Goepfert

Contact : metmap@orbifly.com




SOURCES & CREDITS :

   NOAA